sensor_id;sensor_type;location;lat;lon;timestamp;temperature;humidity
14349;DHT22;7258;50.376;8.742;2023-09-12T00:02:02;18.60;99.90
14349;DHT22;7258;50.376;8.742;2023-09-12T00:04:06;18.60;99.90
14349;DHT22;7258;50.376;8.742;2023-09-12T00:06:09;18.60;99.90
14349;DHT22;7258;50.376;8.742;2023-09-12T00:08:12;18.60;99.90
14349;DHT22;7258;50.376;8.742;2023-09-12T00:10:15;18.50;99.90
14349;DHT22;7258;50.376;8.742;2023-09-12T00:12:17;18.50;99.90
14349;DHT22;7258;50.376;8.742;2023-09-12T00:14:20;18.50;99.90
14349;DHT22;7258;50.376;8.742;2023-09-12T00:16:23;18.50;99.90
14349;DHT22;7258;50.376;8.742;2023-09-12T00:18:25;18.50;99.90
14349;DHT22;7258;50.376;8.742;2023-09-12T00:20:30;18.40;99.90
14349;DHT22;7258;50.376;8.742;2023-09-12T00:22:33;18.40;99.90
14349;DHT22;7258;50.376;8.742;2023-09-12T00:24:36;18.40;99.90
14349;DHT22;7258;50.376;8.742;2023-09-12T00:26:39;18.40;99.90
14349;DHT22;7258;50.376;8.742;2023-09-12T00:28:42;18.30;99.90
14349;DHT22;7258;50.376;8.742;2023-09-12T00:30:45;18.40;99.90
14349;DHT22;7258;50.376;8.742;2023-09-12T00:32:48;18.40;99.90
14349;DHT22;7258;50.376;8.742;2023-09-12T00:34:51;18.40;99.90
14349;DHT22;7258;50.376;8.742;2023-09-12T00:36:55;18.40;99.90
14349;DHT22;7258;50.376;8.742;2023-09-12T00:38:58;18.40;99.90
14349;DHT22;7258;50.376;8.742;2023-09-12T00:41:01;18.40;99.90
14349;DHT22;7258;50.376;8.742;2023-09-12T00:43:03;18.40;99.90
14349;DHT22;7258;50.376;8.742;2023-09-12T00:45:06;18.40;99.90
14349;DHT22;7258;50.376;8.742;2023-09-12T00:47:10;18.40;99.90
14349;DHT22;7258;50.376;8.742;2023-09-12T00:49:14;18.40;99.90
14349;DHT22;7258;50.376;8.742;2023-09-12T00:51:18;18.40;99.90
14349;DHT22;7258;50.376;8.742;2023-09-12T00:53:24;18.30;99.90
14349;DHT22;7258;50.376;8.742;2023-09-12T00:55:29;18.30;99.90
14349;DHT22;7258;50.376;8.742;2023-09-12T00:57:34;18.20;99.90
14349;DHT22;7258;50.376;8.742;2023-09-12T00:59:37;18.20;99.90
14349;DHT22;7258;50.376;8.742;2023-09-12T01:01:40;18.10;99.90
14349;DHT22;7258;50.376;8.742;2023-09-12T01:03:43;18.10;99.90
14349;DHT22;7258;50.376;8.742;2023-09-12T01:05:47;18.10;99.90
14349;DHT22;7258;50.376;8.742;2023-09-12T01:07:50;18.00;99.90
14349;DHT22;7258;50.376;8.742;2023-09-12T01:09:55;18.10;99.90
14349;DHT22;7258;50.376;8.742;2023-09-12T01:11:58;18.00;99.90
14349;DHT22;7258;50.376;8.742;2023-09-12T01:14:02;18.00;99.90
14349;DHT22;7258;50.376;8.742;2023-09-12T01:16:05;17.90;99.90
14349;DHT22;7258;50.376;8.742;2023-09-12T01:18:07;17.90;99.90
14349;DHT22;7258;50.376;8.742;2023-09-12T01:20:14;17.80;99.90
14349;DHT22;7258;50.376;8.742;2023-09-12T01:22:40;17.80;99.90
14349;DHT22;7258;50.376;8.742;2023-09-12T01:27:22;17.70;99.90
14349;DHT22;7258;50.376;8.742;2023-09-12T01:29:28;17.70;99.90
14349;DHT22;7258;50.376;8.742;2023-09-12T01:31:33;17.70;99.90
14349;DHT22;7258;50.376;8.742;2023-09-12T01:33:37;17.60;99.90
14349;DHT22;7258;50.376;8.742;2023-09-12T01:35:39;17.60;99.90
14349;DHT22;7258;50.376;8.742;2023-09-12T01:37:41;17.60;99.90
14349;DHT22;7258;50.376;8.742;2023-09-12T01:39:44;17.60;99.90
14349;DHT22;7258;50.376;8.742;2023-09-12T01:41:47;17.60;99.90
14349;DHT22;7258;50.376;8.742;2023-09-12T01:43:52;17.60;99.90
14349;DHT22;7258;50.376;8.742;2023-09-12T01:45:57;17.50;99.90
14349;DHT22;7258;50.376;8.742;2023-09-12T01:48:01;17.50;99.90
14349;DHT22;7258;50.376;8.742;2023-09-12T01:50:07;17.50;99.90
14349;DHT22;7258;50.376;8.742;2023-09-12T01:52:14;17.50;99.90
14349;DHT22;7258;50.376;8.742;2023-09-12T01:54:19;17.50;99.90
14349;DHT22;7258;50.376;8.742;2023-09-12T01:56:22;17.50;99.90
14349;DHT22;7258;50.376;8.742;2023-09-12T01:58:26;17.50;99.90
14349;DHT22;7258;50.376;8.742;2023-09-12T02:00:31;17.40;99.90
14349;DHT22;7258;50.376;8.742;2023-09-12T02:02:33;17.40;99.90
14349;DHT22;7258;50.376;8.742;2023-09-12T02:04:36;17.40;99.90
14349;DHT22;7258;50.376;8.742;2023-09-12T02:06:39;17.40;99.90
14349;DHT22;7258;50.376;8.742;2023-09-12T02:08:42;17.30;99.90
14349;DHT22;7258;50.376;8.742;2023-09-12T02:10:45;17.30;99.90
14349;DHT22;7258;50.376;8.742;2023-09-12T02:12:48;17.30;99.90
14349;DHT22;7258;50.376;8.742;2023-09-12T02:14:51;17.30;99.90
14349;DHT22;7258;50.376;8.742;2023-09-12T02:16:55;17.30;99.90
14349;DHT22;7258;50.376;8.742;2023-09-12T02:18:58;17.20;99.90
14349;DHT22;7258;50.376;8.742;2023-09-12T02:21:01;17.20;99.90
14349;DHT22;7258;50.376;8.742;2023-09-12T02:23:04;17.20;99.90
14349;DHT22;7258;50.376;8.742;2023-09-12T02:25:07;17.20;99.90
14349;DHT22;7258;50.376;8.742;2023-09-12T02:27:11;17.20;99.90
14349;DHT22;7258;50.376;8.742;2023-09-12T02:29:13;17.20;99.90
14349;DHT22;7258;50.376;8.742;2023-09-12T02:31:16;17.20;99.90
14349;DHT22;7258;50.376;8.742;2023-09-12T02:33:20;17.20;99.90
14349;DHT22;7258;50.376;8.742;2023-09-12T02:35:23;17.20;99.90
14349;DHT22;7258;50.376;8.742;2023-09-12T02:37:26;17.10;99.90
14349;DHT22;7258;50.376;8.742;2023-09-12T02:39:29;17.10;99.90
14349;DHT22;7258;50.376;8.742;2023-09-12T02:41:31;17.10;99.90
14349;DHT22;7258;50.376;8.742;2023-09-12T02:43:34;17.10;99.90
14349;DHT22;7258;50.376;8.742;2023-09-12T02:45:36;17.10;99.90
14349;DHT22;7258;50.376;8.742;2023-09-12T02:47:39;17.10;99.90
14349;DHT22;7258;50.376;8.742;2023-09-12T02:49:46;17.10;99.90
14349;DHT22;7258;50.376;8.742;2023-09-12T02:51:48;17.10;99.90
14349;DHT22;7258;50.376;8.742;2023-09-12T02:53:51;17.00;99.90
14349;DHT22;7258;50.376;8.742;2023-09-12T02:55:53;17.00;99.90
14349;DHT22;7258;50.376;8.742;2023-09-12T02:57:56;17.00;99.90
14349;DHT22;7258;50.376;8.742;2023-09-12T02:59:59;17.00;99.90
14349;DHT22;7258;50.376;8.742;2023-09-12T03:02:02;17.00;99.90
14349;DHT22;7258;50.376;8.742;2023-09-12T03:04:05;17.00;99.90
14349;DHT22;7258;50.376;8.742;2023-09-12T03:06:10;17.00;99.90
14349;DHT22;7258;50.376;8.742;2023-09-12T03:08:13;16.90;99.90
14349;DHT22;7258;50.376;8.742;2023-09-12T03:10:16;16.90;99.90
14349;DHT22;7258;50.376;8.742;2023-09-12T03:12:18;16.90;99.90
14349;DHT22;7258;50.376;8.742;2023-09-12T03:14:21;16.90;99.90
14349;DHT22;7258;50.376;8.742;2023-09-12T03:16:23;16.90;99.90
14349;DHT22;7258;50.376;8.742;2023-09-12T03:18:27;16.80;99.90
14349;DHT22;7258;50.376;8.742;2023-09-12T03:20:29;16.90;99.90
14349;DHT22;7258;50.376;8.742;2023-09-12T03:22:34;16.90;99.90
14349;DHT22;7258;50.376;8.742;2023-09-12T03:24:40;16.80;99.90
14349;DHT22;7258;50.376;8.742;2023-09-12T03:26:42;16.80;99.90
14349;DHT22;7258;50.376;8.742;2023-09-12T03:28:45;16.80;99.90
14349;DHT22;7258;50.376;8.742;2023-09-12T03:30:48;16.80;99.90
14349;DHT22;7258;50.376;8.742;2023-09-12T03:32:51;16.70;99.90
14349;DHT22;7258;50.376;8.742;2023-09-12T03:34:54;16.70;99.90
14349;DHT22;7258;50.376;8.742;2023-09-12T03:36:57;16.70;99.90
14349;DHT22;7258;50.376;8.742;2023-09-12T03:39:01;16.70;99.90
14349;DHT22;7258;50.376;8.742;2023-09-12T03:41:04;16.60;99.90
14349;DHT22;7258;50.376;8.742;2023-09-12T03:43:07;16.70;99.90
14349;DHT22;7258;50.376;8.742;2023-09-12T03:45:10;16.70;99.90
14349;DHT22;7258;50.376;8.742;2023-09-12T03:47:13;16.70;99.90
14349;DHT22;7258;50.376;8.742;2023-09-12T03:49:16;16.70;99.90
14349;DHT22;7258;50.376;8.742;2023-09-12T03:51:19;16.70;99.90
14349;DHT22;7258;50.376;8.742;2023-09-12T03:53:22;16.60;99.90
14349;DHT22;7258;50.376;8.742;2023-09-12T03:55:26;16.70;99.90
14349;DHT22;7258;50.376;8.742;2023-09-12T03:57:29;16.70;99.90
14349;DHT22;7258;50.376;8.742;2023-09-12T03:59:33;16.70;99.90
14349;DHT22;7258;50.376;8.742;2023-09-12T04:01:36;16.70;99.90
14349;DHT22;7258;50.376;8.742;2023-09-12T04:03:39;16.80;99.90
14349;DHT22;7258;50.376;8.742;2023-09-12T04:05:42;16.80;99.90
14349;DHT22;7258;50.376;8.742;2023-09-12T04:07:45;16.80;99.90
14349;DHT22;7258;50.376;8.742;2023-09-12T04:09:48;16.80;99.90
14349;DHT22;7258;50.376;8.742;2023-09-12T04:11:52;16.80;99.90
14349;DHT22;7258;50.376;8.742;2023-09-12T04:13:55;16.80;99.90
14349;DHT22;7258;50.376;8.742;2023-09-12T04:15:57;16.80;99.90
14349;DHT22;7258;50.376;8.742;2023-09-12T04:18:01;16.80;99.90
14349;DHT22;7258;50.376;8.742;2023-09-12T04:20:05;16.80;99.90
14349;DHT22;7258;50.376;8.742;2023-09-12T04:22:08;16.90;99.90
14349;DHT22;7258;50.376;8.742;2023-09-12T04:24:11;16.90;99.90
14349;DHT22;7258;50.376;8.742;2023-09-12T04:26:14;16.90;99.90
14349;DHT22;7258;50.376;8.742;2023-09-12T04:28:18;17.00;99.90
14349;DHT22;7258;50.376;8.742;2023-09-12T04:30:21;17.00;99.90
14349;DHT22;7258;50.376;8.742;2023-09-12T04:32:24;17.10;99.90
14349;DHT22;7258;50.376;8.742;2023-09-12T04:34:27;17.10;99.90
14349;DHT22;7258;50.376;8.742;2023-09-12T04:36:30;17.20;99.90
14349;DHT22;7258;50.376;8.742;2023-09-12T04:38:32;17.20;99.90
14349;DHT22;7258;50.376;8.742;2023-09-12T04:40:35;17.20;99.90
14349;DHT22;7258;50.376;8.742;2023-09-12T04:42:39;17.20;99.90
14349;DHT22;7258;50.376;8.742;2023-09-12T04:44:43;17.20;99.90
14349;DHT22;7258;50.376;8.742;2023-09-12T04:46:46;17.30;99.90
14349;DHT22;7258;50.376;8.742;2023-09-12T04:48:52;17.30;99.90
14349;DHT22;7258;50.376;8.742;2023-09-12T04:50:55;17.30;99.90
14349;DHT22;7258;50.376;8.742;2023-09-12T04:52:58;17.30;99.90
14349;DHT22;7258;50.376;8.742;2023-09-12T04:55:01;17.30;99.90
14349;DHT22;7258;50.376;8.742;2023-09-12T04:57:05;17.30;99.90
14349;DHT22;7258;50.376;8.742;2023-09-12T04:59:08;17.20;99.90
14349;DHT22;7258;50.376;8.742;2023-09-12T05:01:12;17.20;99.90
14349;DHT22;7258;50.376;8.742;2023-09-12T05:03:15;17.20;99.90
14349;DHT22;7258;50.376;8.742;2023-09-12T05:05:18;17.20;99.90
14349;DHT22;7258;50.376;8.742;2023-09-12T05:07:21;17.20;99.90
14349;DHT22;7258;50.376;8.742;2023-09-12T05:09:24;17.30;99.90
14349;DHT22;7258;50.376;8.742;2023-09-12T05:11:27;17.30;99.90
14349;DHT22;7258;50.376;8.742;2023-09-12T05:13:30;17.30;99.90
14349;DHT22;7258;50.376;8.742;2023-09-12T05:15:33;17.30;99.90
14349;DHT22;7258;50.376;8.742;2023-09-12T05:17:37;17.30;99.90
14349;DHT22;7258;50.376;8.742;2023-09-12T05:19:40;17.30;99.90
14349;DHT22;7258;50.376;8.742;2023-09-12T05:21:43;17.30;99.90
14349;DHT22;7258;50.376;8.742;2023-09-12T05:23:46;17.30;99.90
14349;DHT22;7258;50.376;8.742;2023-09-12T05:25:49;17.40;99.90
14349;DHT22;7258;50.376;8.742;2023-09-12T05:27:52;17.40;99.90
14349;DHT22;7258;50.376;8.742;2023-09-12T05:29:55;17.40;99.90
14349;DHT22;7258;50.376;8.742;2023-09-12T05:31:57;17.50;99.90
14349;DHT22;7258;50.376;8.742;2023-09-12T05:34:02;17.50;99.90
14349;DHT22;7258;50.376;8.742;2023-09-12T05:36:04;17.50;99.90
14349;DHT22;7258;50.376;8.742;2023-09-12T05:38:09;17.60;99.90
14349;DHT22;7258;50.376;8.742;2023-09-12T05:40:11;17.60;99.90
14349;DHT22;7258;50.376;8.742;2023-09-12T05:42:14;17.60;99.90
14349;DHT22;7258;50.376;8.742;2023-09-12T05:44:22;17.60;99.90
14349;DHT22;7258;50.376;8.742;2023-09-12T05:46:25;17.60;99.90
14349;DHT22;7258;50.376;8.742;2023-09-12T05:48:28;17.60;99.90
14349;DHT22;7258;50.376;8.742;2023-09-12T05:50:32;17.60;99.90
14349;DHT22;7258;50.376;8.742;2023-09-12T05:52:34;17.60;99.90
14349;DHT22;7258;50.376;8.742;2023-09-12T05:54:37;17.60;99.90
14349;DHT22;7258;50.376;8.742;2023-09-12T05:56:40;17.70;99.90
14349;DHT22;7258;50.376;8.742;2023-09-12T05:58:43;17.70;99.90
14349;DHT22;7258;50.376;8.742;2023-09-12T06:00:46;17.70;99.90
14349;DHT22;7258;50.376;8.742;2023-09-12T06:02:49;17.80;99.90
14349;DHT22;7258;50.376;8.742;2023-09-12T06:04:53;17.80;99.90
14349;DHT22;7258;50.376;8.742;2023-09-12T06:06:57;17.90;99.90
14349;DHT22;7258;50.376;8.742;2023-09-12T06:09:01;17.90;99.90
14349;DHT22;7258;50.376;8.742;2023-09-12T06:11:05;18.00;99.90
14349;DHT22;7258;50.376;8.742;2023-09-12T06:13:07;18.00;99.90
14349;DHT22;7258;50.376;8.742;2023-09-12T06:15:13;18.10;99.90
14349;DHT22;7258;50.376;8.742;2023-09-12T06:17:17;18.10;99.90
14349;DHT22;7258;50.376;8.742;2023-09-12T06:19:20;18.10;99.90
14349;DHT22;7258;50.376;8.742;2023-09-12T06:21:22;18.20;99.90
14349;DHT22;7258;50.376;8.742;2023-09-12T06:23:27;18.20;99.90
14349;DHT22;7258;50.376;8.742;2023-09-12T06:25:29;18.30;99.90
14349;DHT22;7258;50.376;8.742;2023-09-12T06:27:34;18.30;99.90
14349;DHT22;7258;50.376;8.742;2023-09-12T06:29:36;18.40;99.90
14349;DHT22;7258;50.376;8.742;2023-09-12T06:31:40;18.40;99.90
14349;DHT22;7258;50.376;8.742;2023-09-12T06:33:43;18.50;99.90
14349;DHT22;7258;50.376;8.742;2023-09-12T06:35:51;18.60;99.90
14349;DHT22;7258;50.376;8.742;2023-09-12T06:37:54;18.70;99.90
14349;DHT22;7258;50.376;8.742;2023-09-12T06:40:00;18.70;99.90
14349;DHT22;7258;50.376;8.742;2023-09-12T06:42:04;18.90;99.90
14349;DHT22;7258;50.376;8.742;2023-09-12T06:44:27;18.90;99.90
14349;DHT22;7258;50.376;8.742;2023-09-12T06:46:33;19.10;99.90
14349;DHT22;7258;50.376;8.742;2023-09-12T06:48:55;19.10;99.90
14349;DHT22;7258;50.376;8.742;2023-09-12T06:51:24;19.20;99.90
14349;DHT22;7258;50.376;8.742;2023-09-12T06:53:41;19.20;99.90
14349;DHT22;7258;50.376;8.742;2023-09-12T06:55:58;19.30;99.90
14349;DHT22;7258;50.376;8.742;2023-09-12T06:58:32;19.40;99.90
14349;DHT22;7258;50.376;8.742;2023-09-12T07:00:53;19.40;99.90
14349;DHT22;7258;50.376;8.742;2023-09-12T07:03:09;19.50;99.90
14349;DHT22;7258;50.376;8.742;2023-09-12T07:05:19;19.60;99.90
14349;DHT22;7258;50.376;8.742;2023-09-12T07:07:26;19.70;99.90
14349;DHT22;7258;50.376;8.742;2023-09-12T07:09:29;19.80;99.90
14349;DHT22;7258;50.376;8.742;2023-09-12T07:11:33;19.80;99.90
14349;DHT22;7258;50.376;8.742;2023-09-12T07:13:36;19.70;99.90
14349;DHT22;7258;50.376;8.742;2023-09-12T07:15:39;19.80;99.90
14349;DHT22;7258;50.376;8.742;2023-09-12T07:17:45;19.80;99.90
14349;DHT22;7258;50.376;8.742;2023-09-12T07:19:48;19.70;99.90
14349;DHT22;7258;50.376;8.742;2023-09-12T07:21:52;19.70;99.90
14349;DHT22;7258;50.376;8.742;2023-09-12T07:23:55;19.80;99.90
14349;DHT22;7258;50.376;8.742;2023-09-12T07:25:58;20.00;99.90
14349;DHT22;7258;50.376;8.742;2023-09-12T07:28:03;20.20;99.90
14349;DHT22;7258;50.376;8.742;2023-09-12T07:30:07;20.40;99.90
14349;DHT22;7258;50.376;8.742;2023-09-12T07:32:10;20.70;99.90
14349;DHT22;7258;50.376;8.742;2023-09-12T07:34:13;20.90;99.90
14349;DHT22;7258;50.376;8.742;2023-09-12T07:36:16;21.10;99.90
14349;DHT22;7258;50.376;8.742;2023-09-12T07:38:20;21.30;99.90
14349;DHT22;7258;50.376;8.742;2023-09-12T07:40:23;21.40;99.90
14349;DHT22;7258;50.376;8.742;2023-09-12T07:42:25;21.60;99.90
14349;DHT22;7258;50.376;8.742;2023-09-12T07:44:30;21.90;99.90
14349;DHT22;7258;50.376;8.742;2023-09-12T07:46:33;22.00;99.90
14349;DHT22;7258;50.376;8.742;2023-09-12T07:48:35;22.10;99.90
14349;DHT22;7258;50.376;8.742;2023-09-12T07:50:38;22.20;99.90
14349;DHT22;7258;50.376;8.742;2023-09-12T07:52:41;22.10;99.90
14349;DHT22;7258;50.376;8.742;2023-09-12T07:54:44;22.10;99.90
14349;DHT22;7258;50.376;8.742;2023-09-12T07:56:47;22.00;99.90
14349;DHT22;7258;50.376;8.742;2023-09-12T07:58:50;22.00;99.90
14349;DHT22;7258;50.376;8.742;2023-09-12T08:01:05;22.00;99.90
14349;DHT22;7258;50.376;8.742;2023-09-12T08:03:09;22.20;99.90
14349;DHT22;7258;50.376;8.742;2023-09-12T08:05:13;22.30;99.90
14349;DHT22;7258;50.376;8.742;2023-09-12T08:07:16;22.40;99.90
14349;DHT22;7258;50.376;8.742;2023-09-12T08:09:19;22.40;99.90
14349;DHT22;7258;50.376;8.742;2023-09-12T08:11:22;22.50;99.90
14349;DHT22;7258;50.376;8.742;2023-09-12T08:13:26;22.60;99.90
14349;DHT22;7258;50.376;8.742;2023-09-12T08:15:29;22.60;99.90
14349;DHT22;7258;50.376;8.742;2023-09-12T08:17:33;22.60;99.90
14349;DHT22;7258;50.376;8.742;2023-09-12T08:19:37;22.70;99.90
14349;DHT22;7258;50.376;8.742;2023-09-12T08:21:41;22.80;99.90
14349;DHT22;7258;50.376;8.742;2023-09-12T08:23:48;22.80;99.90
14349;DHT22;7258;50.376;8.742;2023-09-12T08:25:51;22.90;99.90
14349;DHT22;7258;50.376;8.742;2023-09-12T08:27:54;23.00;99.90
14349;DHT22;7258;50.376;8.742;2023-09-12T08:29:58;23.10;99.90
14349;DHT22;7258;50.376;8.742;2023-09-12T08:32:01;23.20;99.90
14349;DHT22;7258;50.376;8.742;2023-09-12T08:34:06;23.30;99.90
14349;DHT22;7258;50.376;8.742;2023-09-12T08:36:09;23.40;99.90
14349;DHT22;7258;50.376;8.742;2023-09-12T08:38:12;23.50;99.90
14349;DHT22;7258;50.376;8.742;2023-09-12T08:40:14;23.60;99.90
14349;DHT22;7258;50.376;8.742;2023-09-12T08:42:18;23.70;99.90
14349;DHT22;7258;50.376;8.742;2023-09-12T08:44:21;23.70;99.90
14349;DHT22;7258;50.376;8.742;2023-09-12T08:46:24;23.80;99.90
14349;DHT22;7258;50.376;8.742;2023-09-12T08:48:28;23.90;99.90
14349;DHT22;7258;50.376;8.742;2023-09-12T08:50:34;24.00;99.90
14349;DHT22;7258;50.376;8.742;2023-09-12T08:52:37;24.10;99.90
14349;DHT22;7258;50.376;8.742;2023-09-12T08:54:52;24.10;99.90
14349;DHT22;7258;50.376;8.742;2023-09-12T08:56:55;24.20;99.90
14349;DHT22;7258;50.376;8.742;2023-09-12T08:59:00;24.30;99.90
14349;DHT22;7258;50.376;8.742;2023-09-12T09:01:06;24.50;99.90
14349;DHT22;7258;50.376;8.742;2023-09-12T09:03:09;24.60;99.90
14349;DHT22;7258;50.376;8.742;2023-09-12T09:05:13;24.70;99.90
14349;DHT22;7258;50.376;8.742;2023-09-12T09:07:18;24.80;99.90
14349;DHT22;7258;50.376;8.742;2023-09-12T09:09:22;24.90;99.90
14349;DHT22;7258;50.376;8.742;2023-09-12T09:11:28;24.90;99.90
14349;DHT22;7258;50.376;8.742;2023-09-12T09:13:32;25.10;99.90
14349;DHT22;7258;50.376;8.742;2023-09-12T09:15:35;25.20;99.90
14349;DHT22;7258;50.376;8.742;2023-09-12T09:20:05;25.50;99.90
14349;DHT22;7258;50.376;8.742;2023-09-12T09:22:16;25.60;99.90
14349;DHT22;7258;50.376;8.742;2023-09-12T09:24:21;25.70;99.90
14349;DHT22;7258;50.376;8.742;2023-09-12T09:26:44;25.90;99.90
14349;DHT22;7258;50.376;8.742;2023-09-12T09:29:05;26.00;99.90
14349;DHT22;7258;50.376;8.742;2023-09-12T09:31:13;26.20;99.90
14349;DHT22;7258;50.376;8.742;2023-09-12T09:33:22;26.20;99.90
14349;DHT22;7258;50.376;8.742;2023-09-12T09:35:49;26.30;99.90
14349;DHT22;7258;50.376;8.742;2023-09-12T09:37:54;26.30;99.90
14349;DHT22;7258;50.376;8.742;2023-09-12T09:40:06;26.40;99.90
14349;DHT22;7258;50.376;8.742;2023-09-12T09:42:11;26.50;99.90
14349;DHT22;7258;50.376;8.742;2023-09-12T09:44:31;26.60;99.90
14349;DHT22;7258;50.376;8.742;2023-09-12T09:46:59;26.70;99.90
14349;DHT22;7258;50.376;8.742;2023-09-12T09:49:12;26.80;99.90
14349;DHT22;7258;50.376;8.742;2023-09-12T09:51:25;26.80;99.90
14349;DHT22;7258;50.376;8.742;2023-09-12T09:53:39;26.80;99.90
14349;DHT22;7258;50.376;8.742;2023-09-12T09:55:48;26.90;99.90
14349;DHT22;7258;50.376;8.742;2023-09-12T09:57:57;27.00;99.90
14349;DHT22;7258;50.376;8.742;2023-09-12T10:00:00;27.10;99.90
14349;DHT22;7258;50.376;8.742;2023-09-12T10:02:03;27.00;99.90
14349;DHT22;7258;50.376;8.742;2023-09-12T10:04:09;27.10;99.90
14349;DHT22;7258;50.376;8.742;2023-09-12T10:06:13;27.20;99.90
14349;DHT22;7258;50.376;8.742;2023-09-12T10:08:17;27.30;99.90
14349;DHT22;7258;50.376;8.742;2023-09-12T10:10:24;27.40;99.90
14349;DHT22;7258;50.376;8.742;2023-09-12T10:12:35;27.50;99.90
14349;DHT22;7258;50.376;8.742;2023-09-12T10:14:39;27.60;99.90
14349;DHT22;7258;50.376;8.742;2023-09-12T10:16:45;27.70;99.70
14349;DHT22;7258;50.376;8.742;2023-09-12T10:18:57;27.70;99.80
14349;DHT22;7258;50.376;8.742;2023-09-12T10:21:05;27.70;99.60
14349;DHT22;7258;50.376;8.742;2023-09-12T10:23:14;27.80;99.40
14349;DHT22;7258;50.376;8.742;2023-09-12T10:25:19;27.90;99.90
14349;DHT22;7258;50.376;8.742;2023-09-12T10:27:22;28.00;99.90
14349;DHT22;7258;50.376;8.742;2023-09-12T10:29:28;28.00;99.20
14349;DHT22;7258;50.376;8.742;2023-09-12T10:31:32;28.00;98.80
14349;DHT22;7258;50.376;8.742;2023-09-12T10:33:36;28.10;99.10
14349;DHT22;7258;50.376;8.742;2023-09-12T10:35:40;28.10;99.50
14349;DHT22;7258;50.376;8.742;2023-09-12T10:37:44;28.10;99.20
14349;DHT22;7258;50.376;8.742;2023-09-12T10:39:52;28.20;99.00
14349;DHT22;7258;50.376;8.742;2023-09-12T10:41:57;28.20;99.10
14349;DHT22;7258;50.376;8.742;2023-09-12T10:44:01;28.30;98.30
14349;DHT22;7258;50.376;8.742;2023-09-12T10:46:06;28.30;98.10
14349;DHT22;7258;50.376;8.742;2023-09-12T10:48:10;28.30;98.80
14349;DHT22;7258;50.376;8.742;2023-09-12T10:50:14;28.30;98.20
14349;DHT22;7258;50.376;8.742;2023-09-12T10:52:24;28.30;98.50
14349;DHT22;7258;50.376;8.742;2023-09-12T10:54:36;28.40;98.00
14349;DHT22;7258;50.376;8.742;2023-09-12T10:56:40;28.50;98.20
14349;DHT22;7258;50.376;8.742;2023-09-12T10:59:08;28.50;98.00
14349;DHT22;7258;50.376;8.742;2023-09-12T11:01:25;28.70;98.20
14349;DHT22;7258;50.376;8.742;2023-09-12T11:03:38;28.80;98.20
14349;DHT22;7258;50.376;8.742;2023-09-12T11:05:51;28.90;97.80
14349;DHT22;7258;50.376;8.742;2023-09-12T11:07:56;29.00;97.90
14349;DHT22;7258;50.376;8.742;2023-09-12T11:10:19;29.00;97.80
14349;DHT22;7258;50.376;8.742;2023-09-12T11:12:35;29.00;98.20
14349;DHT22;7258;50.376;8.742;2023-09-12T11:15:03;29.10;97.90
14349;DHT22;7258;50.376;8.742;2023-09-12T11:17:24;29.20;97.10
14349;DHT22;7258;50.376;8.742;2023-09-12T11:19:28;29.20;97.20
14349;DHT22;7258;50.376;8.742;2023-09-12T11:21:33;29.20;97.00
14349;DHT22;7258;50.376;8.742;2023-09-12T11:23:36;29.20;97.50
14349;DHT22;7258;50.376;8.742;2023-09-12T11:25:41;29.30;97.30
14349;DHT22;7258;50.376;8.742;2023-09-12T11:27:46;29.40;97.30
14349;DHT22;7258;50.376;8.742;2023-09-12T11:30:07;29.40;96.10
14349;DHT22;7258;50.376;8.742;2023-09-12T11:32:10;29.50;95.50
14349;DHT22;7258;50.376;8.742;2023-09-12T11:34:37;29.40;95.60
14349;DHT22;7258;50.376;8.742;2023-09-12T11:36:43;29.50;96.30
14349;DHT22;7258;50.376;8.742;2023-09-12T11:38:49;29.50;96.30
14349;DHT22;7258;50.376;8.742;2023-09-12T11:40:58;29.50;95.50
14349;DHT22;7258;50.376;8.742;2023-09-12T11:43:02;29.50;95.50
14349;DHT22;7258;50.376;8.742;2023-09-12T11:45:10;29.50;95.60
14349;DHT22;7258;50.376;8.742;2023-09-12T11:47:17;29.40;95.50
14349;DHT22;7258;50.376;8.742;2023-09-12T11:49:25;29.40;95.70
14349;DHT22;7258;50.376;8.742;2023-09-12T11:51:59;29.40;96.30
14349;DHT22;7258;50.376;8.742;2023-09-12T11:54:02;29.50;95.90
14349;DHT22;7258;50.376;8.742;2023-09-12T11:56:06;29.50;95.80
14349;DHT22;7258;50.376;8.742;2023-09-12T11:58:13;29.50;95.50
14349;DHT22;7258;50.376;8.742;2023-09-12T12:00:16;29.50;95.70
14349;DHT22;7258;50.376;8.742;2023-09-12T12:02:21;29.60;95.80
14349;DHT22;7258;50.376;8.742;2023-09-12T12:04:25;29.60;96.20
14349;DHT22;7258;50.376;8.742;2023-09-12T12:06:30;29.60;96.00
14349;DHT22;7258;50.376;8.742;2023-09-12T12:08:34;29.70;96.20
14349;DHT22;7258;50.376;8.742;2023-09-12T12:10:38;29.80;95.80
14349;DHT22;7258;50.376;8.742;2023-09-12T12:12:43;29.90;95.60
14349;DHT22;7258;50.376;8.742;2023-09-12T12:14:47;30.10;95.40
14349;DHT22;7258;50.376;8.742;2023-09-12T12:16:52;30.20;95.30
14349;DHT22;7258;50.376;8.742;2023-09-12T12:18:55;30.40;95.30
14349;DHT22;7258;50.376;8.742;2023-09-12T12:20:59;30.50;95.00
14349;DHT22;7258;50.376;8.742;2023-09-12T12:23:07;30.60;94.70
14349;DHT22;7258;50.376;8.742;2023-09-12T12:25:13;30.60;94.50
14349;DHT22;7258;50.376;8.742;2023-09-12T12:27:17;30.60;94.70
14349;DHT22;7258;50.376;8.742;2023-09-12T12:29:22;30.60;94.70
14349;DHT22;7258;50.376;8.742;2023-09-12T12:31:24;30.60;94.70
14349;DHT22;7258;50.376;8.742;2023-09-12T12:33:31;30.60;94.80
14349;DHT22;7258;50.376;8.742;2023-09-12T12:35:59;30.50;95.00
14349;DHT22;7258;50.376;8.742;2023-09-12T12:38:03;30.60;95.60
14349;DHT22;7258;50.376;8.742;2023-09-12T12:40:13;30.70;95.20
14349;DHT22;7258;50.376;8.742;2023-09-12T12:42:16;30.70;94.80
14349;DHT22;7258;50.376;8.742;2023-09-12T12:44:21;30.90;94.60
14349;DHT22;7258;50.376;8.742;2023-09-12T12:46:26;31.10;94.00
14349;DHT22;7258;50.376;8.742;2023-09-12T12:48:31;31.20;93.90
14349;DHT22;7258;50.376;8.742;2023-09-12T12:50:38;31.30;94.00
14349;DHT22;7258;50.376;8.742;2023-09-12T12:52:46;31.40;93.50
14349;DHT22;7258;50.376;8.742;2023-09-12T12:54:49;31.30;93.10
14349;DHT22;7258;50.376;8.742;2023-09-12T12:56:56;31.30;93.50
14349;DHT22;7258;50.376;8.742;2023-09-12T12:59:01;31.30;93.40
14349;DHT22;7258;50.376;8.742;2023-09-12T13:01:10;31.30;93.30
14349;DHT22;7258;50.376;8.742;2023-09-12T13:03:14;31.30;93.50
14349;DHT22;7258;50.376;8.742;2023-09-12T13:05:24;31.30;93.10
14349;DHT22;7258;50.376;8.742;2023-09-12T13:07:28;31.30;93.10
14349;DHT22;7258;50.376;8.742;2023-09-12T13:09:31;31.30;93.30
14349;DHT22;7258;50.376;8.742;2023-09-12T13:11:35;31.40;92.90
14349;DHT22;7258;50.376;8.742;2023-09-12T13:13:41;31.50;92.60
14349;DHT22;7258;50.376;8.742;2023-09-12T13:15:45;31.50;92.70
14349;DHT22;7258;50.376;8.742;2023-09-12T13:17:48;31.50;93.10
14349;DHT22;7258;50.376;8.742;2023-09-12T13:19:51;31.50;93.10
14349;DHT22;7258;50.376;8.742;2023-09-12T13:21:54;31.40;93.00
14349;DHT22;7258;50.376;8.742;2023-09-12T13:23:57;31.40;93.20
14349;DHT22;7258;50.376;8.742;2023-09-12T13:26:04;31.40;93.50
14349;DHT22;7258;50.376;8.742;2023-09-12T13:28:07;31.50;93.20
14349;DHT22;7258;50.376;8.742;2023-09-12T13:30:12;31.60;93.10